Time;durP1;ratioP1;P1;durP2;ratioP2;P2;SDS_P1;SDS_P2;PMS_P1;PMS_P2;Temp;Humidity;BMP_temperature;BMP_pressure;BME280_temperature;BME280_humidity;BME280_pressure;Samples;Min_cycle;Max_cycle;Signal;HPM_P1;HPM_P2
2021/06/28 00:01:17;;;;;;;6.90;2.97;;;19.70;91.40;;;;;;5034490;28;20474;-76
2021/06/28 00:03:44;;;;;;;5.40;3.47;;;19.70;91.50;;;;;;5035328;28;20408;-77
2021/06/28 00:06:12;;;;;;;4.57;3.03;;;19.70;90.90;;;;;;5053158;28;20856;-76
2021/06/28 00:08:38;;;;;;;4.70;3.30;;;19.70;90.20;;;;;;5052971;28;20463;-77
2021/06/28 00:11:05;;;;;;;3.77;2.97;;;19.80;90.30;;;;;;5053028;28;20412;-76
2021/06/28 00:13:31;;;;;;;4.60;3.50;;;19.80;90.30;;;;;;5051842;28;20419;-76
2021/06/28 00:15:57;;;;;;;4.37;3.23;;;19.80;91.00;;;;;;5052233;28;20537;-76
2021/06/28 00:18:23;;;;;;;4.60;3.80;;;19.90;90.70;;;;;;5055395;28;20184;-75
2021/06/28 00:20:50;;;;;;;4.57;3.03;;;19.90;91.20;;;;;;5060884;28;20423;-75
2021/06/28 00:23:16;;;;;;;4.10;3.30;;;19.90;90.70;;;;;;5069688;28;20480;-76
2021/06/28 00:25:42;;;;;;;6.17;3.30;;;19.90;91.20;;;;;;5076692;28;20530;-76
2021/06/28 00:28:08;;;;;;;5.63;3.37;;;19.80;91.20;;;;;;5051817;28;20487;-76
2021/06/28 00:30:38;;;;;;;5.57;3.33;;;19.90;91.00;;;;;;5052144;28;20442;-76
2021/06/28 00:33:12;;;;;;;5.53;3.30;;;19.90;90.40;;;;;;5051698;28;20527;-76
2021/06/28 00:35:39;;;;;;;5.33;3.60;;;20.00;90.40;;;;;;5051391;28;20952;-76
2021/06/28 00:38:06;;;;;;;5.00;3.90;;;20.00;90.50;;;;;;5058907;28;20446;-76
2021/06/28 00:40:33;;;;;;;4.73;3.70;;;20.00;90.40;;;;;;5054302;28;20853;-76
2021/06/28 00:42:58;;;;;;;4.97;3.23;;;19.90;91.60;;;;;;5048008;28;20448;-75
2021/06/28 00:45:26;;;;;;;4.80;3.87;;;19.80;91.90;;;;;;5055588;28;20438;-77
2021/06/28 00:47:54;;;;;;;4.80;3.97;;;19.70;92.30;;;;;;5048699;28;20200;-76
2021/06/28 00:50:23;;;;;;;4.67;3.63;;;19.70;92.60;;;;;;5051998;28;20437;-77
2021/06/28 00:52:54;;;;;;;6.50;4.30;;;19.70;93.10;;;;;;5050601;28;20507;-76
2021/06/28 00:55:20;;;;;;;6.57;4.00;;;19.80;93.20;;;;;;5051011;28;20809;-77
2021/06/28 00:57:46;;;;;;;5.40;3.67;;;19.80;93.00;;;;;;5050030;28;20949;-75
2021/06/28 01:00:12;;;;;;;5.03;3.90;;;19.90;92.80;;;;;;5050835;28;20507;-75
2021/06/28 01:02:39;;;;;;;6.57;3.63;;;19.90;92.10;;;;;;5051067;28;20185;-77
2021/06/28 01:05:07;;;;;;;5.50;3.70;;;19.90;92.30;;;;;;5051552;28;20450;-76
2021/06/28 01:07:33;;;;;;;4.53;3.47;;;20.00;91.90;;;;;;5056536;28;20457;-76
2021/06/28 01:09:59;;;;;;;5.10;4.27;;;20.10;92.10;;;;;;5061194;28;20514;-76
2021/06/28 01:12:25;;;;;;;5.83;3.70;;;20.20;92.70;;;;;;5055604;28;20238;-76
2021/06/28 01:14:51;;;;;;;4.97;3.90;;;20.30;92.60;;;;;;5050775;28;20187;-75
2021/06/28 01:17:17;;;;;;;5.73;4.20;;;20.40;92.20;;;;;;5054719;28;20210;-76
2021/06/28 01:19:52;;;;;;;4.70;3.60;;;20.50;92.10;;;;;;5053335;28;20456;-75
2021/06/28 01:22:24;;;;;;;4.97;3.50;;;20.40;91.70;;;;;;5054726;28;20911;-75
2021/06/28 01:24:51;;;;;;;7.20;4.70;;;20.40;91.00;;;;;;5063843;28;20523;-76
2021/06/28 01:27:16;;;;;;;4.43;3.90;;;20.50;91.40;;;;;;5048078;28;20591;-76
2021/06/28 01:29:42;;;;;;;7.40;4.40;;;20.50;90.50;;;;;;5044718;28;20611;-76
2021/06/28 01:32:08;;;;;;;4.53;3.10;;;20.60;90.80;;;;;;5050077;28;20182;-75
2021/06/28 01:34:34;;;;;;;7.30;4.20;;;20.70;90.20;;;;;;5050671;28;20202;-76
2021/06/28 01:37:14;;;;;;;4.67;3.13;;;20.70;90.60;;;;;;5049665;28;20271;-77
2021/06/28 01:39:40;;;;;;;4.80;3.47;;;20.70;90.60;;;;;;5047268;28;20655;-75
2021/06/28 01:42:06;;;;;;;4.80;3.60;;;20.60;90.40;;;;;;5049096;28;20428;-76
2021/06/28 01:44:31;;;;;;;4.17;3.53;;;20.70;90.70;;;;;;5049692;28;20212;-76
2021/06/28 01:46:57;;;;;;;3.90;3.43;;;20.70;90.50;;;;;;5044546;28;20528;-75
2021/06/28 01:49:23;;;;;;;8.00;3.70;;;20.80;90.30;;;;;;5052461;28;20214;-75
2021/06/28 01:51:49;;;;;;;7.13;3.83;;;20.70;90.20;;;;;;5059598;28;20182;-74
2021/06/28 01:54:17;;;;;;;6.60;4.10;;;20.80;90.40;;;;;;5052384;28;20230;-75
2021/06/28 01:56:43;;;;;;;6.47;3.57;;;20.80;90.30;;;;;;5051777;28;20205;-76
2021/06/28 01:59:09;;;;;;;6.30;3.57;;;20.60;89.60;;;;;;5049961;28;20428;-78
2021/06/28 02:01:35;;;;;;;3.77;3.13;;;20.50;89.90;;;;;;5050463;28;20837;-75
2021/06/28 02:04:00;;;;;;;4.53;3.50;;;20.60;90.40;;;;;;5049262;28;20651;-76
2021/06/28 02:06:26;;;;;;;4.53;3.73;;;20.70;90.80;;;;;;5045315;28;20206;-77
2021/06/28 02:08:52;;;;;;;5.23;4.03;;;20.70;89.70;;;;;;5050908;28;20572;-76
2021/06/28 02:11:17;;;;;;;5.00;3.90;;;20.70;89.70;;;;;;5050152;28;20661;-76
2021/06/28 02:13:43;;;;;;;4.33;3.40;;;20.70;90.20;;;;;;5048692;28;20192;-75
2021/06/28 02:16:09;;;;;;;7.63;3.73;;;20.60;90.30;;;;;;5050856;28;20247;-76
2021/06/28 02:18:35;;;;;;;4.90;3.70;;;20.50;90.50;;;;;;5049068;28;20197;-75
2021/06/28 02:21:01;;;;;;;8.53;4.40;;;20.40;91.00;;;;;;5051833;28;20185;-77
2021/06/28 02:23:31;;;;;;;5.33;3.70;;;20.50;91.00;;;;;;5051103;28;20182;-75
2021/06/28 02:26:01;;;;;;;4.37;3.80;;;20.50;91.20;;;;;;5058964;28;20420;-76
2021/06/28 02:28:30;;;;;;;5.43;4.00;;;20.50;90.60;;;;;;5044604;28;20471;-77
2021/06/28 02:30:57;;;;;;;5.10;4.37;;;20.50;90.80;;;;;;5044487;28;20443;-76
2021/06/28 02:33:23;;;;;;;4.10;3.67;;;20.50;90.60;;;;;;5046958;28;20870;-75
2021/06/28 02:35:50;;;;;;;5.60;4.27;;;20.30;91.70;;;;;;5051317;28;20423;-77
2021/06/28 02:38:16;;;;;;;6.63;4.07;;;20.30;91.70;;;;;;5050665;28;20513;-76
2021/06/28 02:40:43;;;;;;;6.27;4.10;;;20.20;92.00;;;;;;5053270;28;20482;-77
2021/06/28 02:43:09;;;;;;;4.53;3.90;;;20.20;92.30;;;;;;5057833;28;20419;-77
2021/06/28 02:45:35;;;;;;;4.30;3.53;;;20.10;92.20;;;;;;5055672;28;20424;-75
2021/06/28 02:48:02;;;;;;;4.60;3.87;;;20.10;92.20;;;;;;5054115;28;20454;-77
2021/06/28 02:50:28;;;;;;;6.57;3.80;;;20.00;92.10;;;;;;5053258;28;20434;-76
2021/06/28 02:52:53;;;;;;;5.50;3.90;;;20.00;92.50;;;;;;5051752;28;20790;-76
2021/06/28 02:55:19;;;;;;;4.70;3.50;;;19.90;92.60;;;;;;5052357;28;20919;-76
2021/06/28 02:57:45;;;;;;;4.40;3.70;;;19.90;92.80;;;;;;5044467;28;20947;-76
2021/06/28 03:00:14;;;;;;;5.40;4.10;;;19.90;92.90;;;;;;5051903;28;20595;-76
2021/06/28 03:02:40;;;;;;;4.07;3.80;;;19.90;92.90;;;;;;5051224;28;20430;-76
2021/06/28 03:05:07;;;;;;;4.63;3.83;;;19.90;92.60;;;;;;5054027;28;20426;-76
2021/06/28 03:07:34;;;;;;;5.20;3.37;;;20.00;92.50;;;;;;5053721;28;20563;-78
2021/06/28 03:10:00;;;;;;;5.63;4.20;;;20.10;92.30;;;;;;5053332;28;20547;-76
2021/06/28 03:12:26;;;;;;;4.70;3.87;;;20.10;91.90;;;;;;5053172;28;20443;-76
2021/06/28 03:14:52;;;;;;;5.70;3.90;;;20.10;92.00;;;;;;5058264;28;20482;-77
2021/06/28 03:17:18;;;;;;;5.27;4.37;;;20.20;91.90;;;;;;5055032;28;20688;-75
2021/06/28 03:19:44;;;;;;;5.70;3.97;;;20.20;92.00;;;;;;5053333;28;20681;-76
2021/06/28 03:22:10;;;;;;;5.40;3.70;;;20.20;92.00;;;;;;5052113;28;20425;-75
2021/06/28 03:24:35;;;;;;;5.63;3.93;;;20.30;91.90;;;;;;5052654;28;20189;-75
2021/06/28 03:27:01;;;;;;;5.93;4.00;;;20.30;91.80;;;;;;5052893;28;20662;-76
2021/06/28 03:29:27;;;;;;;4.67;4.07;;;20.30;91.70;;;;;;5054651;28;20667;-77
2021/06/28 03:31:53;;;;;;;7.30;3.77;;;20.30;91.60;;;;;;5058135;28;20439;-76
2021/06/28 03:34:18;;;;;;;6.67;4.00;;;20.40;91.80;;;;;;5068954;28;20197;-75
2021/06/28 03:36:44;;;;;;;5.43;3.20;;;20.40;92.00;;;;;;5054962;28;20200;-76
2021/06/28 03:39:11;;;;;;;4.80;3.43;;;20.50;91.90;;;;;;5053923;28;20189;-75
2021/06/28 03:41:36;;;;;;;5.60;3.47;;;20.50;91.70;;;;;;5054523;28;20474;-77
2021/06/28 03:44:04;;;;;;;5.37;4.03;;;20.50;91.90;;;;;;5055996;28;20440;-76
2021/06/28 03:46:30;;;;;;;5.83;3.73;;;20.50;92.00;;;;;;5055410;28;20197;-78
2021/06/28 03:48:56;;;;;;;5.00;3.47;;;20.50;91.10;;;;;;5059861;28;20503;-77
2021/06/28 03:51:22;;;;;;;5.00;3.67;;;20.40;91.60;;;;;;5050847;28;20888;-75
2021/06/28 03:53:48;;;;;;;5.77;4.00;;;20.40;92.20;;;;;;5051609;28;20224;-77
2021/06/28 03:56:14;;;;;;;6.17;3.60;;;20.40;92.10;;;;;;5050950;28;20440;-77
2021/06/28 03:58:43;;;;;;;5.20;4.10;;;20.40;91.80;;;;;;5050891;28;20456;-76
2021/06/28 04:01:09;;;;;;;5.37;3.80;;;20.50;91.20;;;;;;5051115;28;20426;-76
2021/06/28 04:03:36;;;;;;;5.63;4.30;;;20.50;90.70;;;;;;5051350;28;20868;-76
2021/06/28 04:06:05;;;;;;;4.90;3.60;;;20.30;91.20;;;;;;5053498;28;20185;-77
2021/06/28 04:08:36;;;;;;;7.20;4.07;;;20.20;91.30;;;;;;5058015;28;20459;-76
2021/06/28 04:11:03;;;;;;;6.60;3.90;;;20.20;91.60;;;;;;5059744;28;20519;-78
2021/06/28 04:13:29;;;;;;;6.70;4.43;;;20.30;91.50;;;;;;5062214;28;20485;-77
2021/06/28 04:15:56;;;;;;;4.70;3.87;;;20.40;91.50;;;;;;5053757;28;20424;-77
2021/06/28 04:18:22;;;;;;;5.13;4.03;;;20.40;91.30;;;;;;5056865;28;20432;-77
2021/06/28 04:20:48;;;;;;;5.40;3.77;;;20.50;90.90;;;;;;5052277;28;20429;-76
2021/06/28 04:23:14;;;;;;;6.37;4.30;;;20.60;90.70;;;;;;5050508;28;20428;-77
2021/06/28 04:25:40;;;;;;;8.40;4.20;;;20.60;90.40;;;;;;5050423;28;20859;-77
2021/06/28 04:28:06;;;;;;;4.60;4.10;;;20.70;90.20;;;;;;5050483;28;20276;-77
2021/06/28 04:30:31;;;;;;;4.60;4.00;;;20.60;90.40;;;;;;5050549;28;20914;-77
2021/06/28 04:32:57;;;;;;;4.73;3.77;;;20.60;90.50;;;;;;5049119;28;20190;-77
2021/06/28 04:35:26;;;;;;;5.17;3.70;;;20.60;90.40;;;;;;5051234;28;20181;-76
2021/06/28 04:37:53;;;;;;;6.73;3.90;;;20.60;90.50;;;;;;5050261;28;21898;-76
2021/06/28 04:40:22;;;;;;;5.53;3.70;;;20.60;91.00;;;;;;5062187;28;20447;-77
2021/06/28 04:42:49;;;;;;;4.90;4.03;;;20.60;90.90;;;;;;5064832;28;20516;-77
2021/06/28 04:45:16;;;;;;;6.80;4.40;;;20.60;91.00;;;;;;5054836;28;20425;-76
2021/06/28 04:47:42;;;;;;;6.00;4.13;;;20.60;91.20;;;;;;5051934;28;20750;-77
2021/06/28 04:50:09;;;;;;;10.83;4.67;;;20.50;91.30;;;;;;5051521;28;20471;-75
2021/06/28 04:52:37;;;;;;;7.80;4.20;;;20.50;91.50;;;;;;5048513;28;20188;-77
2021/06/28 04:55:08;;;;;;;5.73;3.90;;;20.50;90.80;;;;;;5051249;28;20424;-76
2021/06/28 04:57:34;;;;;;;6.13;4.20;;;20.50;90.50;;;;;;5049463;28;20503;-76
2021/06/28 05:00:00;;;;;;;7.07;4.10;;;20.50;90.40;;;;;;5051397;28;20990;-77
2021/06/28 05:02:26;;;;;;;8.00;4.30;;;20.50;90.40;;;;;;5049399;28;20519;-77
2021/06/28 05:04:51;;;;;;;6.70;4.60;;;20.50;90.20;;;;;;5050309;28;20194;-78
2021/06/28 05:07:18;;;;;;;6.43;4.30;;;20.50;90.70;;;;;;5048563;28;20217;-77
2021/06/28 05:09:44;;;;;;;6.00;4.20;;;20.50;90.60;;;;;;5049675;28;20197;-77
2021/06/28 05:12:12;;;;;;;6.70;4.67;;;20.50;91.00;;;;;;5048403;28;20866;-76
2021/06/28 05:14:39;;;;;;;6.90;4.93;;;20.40;92.30;;;;;;5049926;28;20426;-78
2021/06/28 05:17:06;;;;;;;7.57;4.87;;;20.30;92.80;;;;;;5050219;28;20436;-76
2021/06/28 05:19:32;;;;;;;5.87;4.10;;;20.30;93.00;;;;;;5049542;28;20430;-78
2021/06/28 05:21:58;;;;;;;9.87;5.30;;;20.30;93.00;;;;;;5051254;28;20435;-76
2021/06/28 05:24:24;;;;;;;7.70;5.37;;;20.30;93.00;;;;;;5051062;28;20422;-77
2021/06/28 05:26:50;;;;;;;7.20;4.80;;;20.20;93.10;;;;;;5048862;28;20207;-76
2021/06/28 05:29:15;;;;;;;5.80;5.20;;;20.20;93.50;;;;;;5050106;28;20209;-78
2021/06/28 05:31:41;;;;;;;7.23;5.13;;;20.20;93.30;;;;;;5042702;28;20651;-77
2021/06/28 05:34:07;;;;;;;7.77;5.00;;;20.20;93.30;;;;;;5047947;28;20289;-76
2021/06/28 05:36:33;;;;;;;7.37;4.87;;;20.20;93.40;;;;;;5048374;28;20220;-77
2021/06/28 05:38:59;;;;;;;6.47;4.70;;;20.30;93.30;;;;;;5046192;28;20255;-76
2021/06/28 05:41:25;;;;;;;9.60;4.60;;;20.30;92.60;;;;;;5044912;28;20985;-76
2021/06/28 05:43:51;;;;;;;6.27;4.60;;;20.40;92.50;;;;;;5050147;28;20434;-76
2021/06/28 05:46:17;;;;;;;6.20;4.37;;;20.40;90.80;;;;;;5052695;28;20651;-77
2021/06/28 05:48:42;;;;;;;6.40;4.23;;;20.50;90.90;;;;;;5049764;28;20220;-78
2021/06/28 05:51:08;;;;;;;5.40;4.10;;;20.60;90.00;;;;;;5049831;28;20176;-76
2021/06/28 05:53:34;;;;;;;4.97;3.90;;;20.70;89.30;;;;;;5049753;28;20184;-77
2021/06/28 05:56:01;;;;;;;6.00;4.10;;;20.80;88.10;;;;;;5050632;28;20244;-76
2021/06/28 05:58:28;;;;;;;7.20;3.50;;;20.90;88.70;;;;;;5051083;28;20178;-77
2021/06/28 06:00:56;;;;;;;5.40;4.10;;;21.10;88.10;;;;;;5049677;28;20805;-77
2021/06/28 06:03:22;;;;;;;4.40;3.70;;;21.30;87.60;;;;;;5053813;28;20511;-76
2021/06/28 06:05:48;;;;;;;5.07;3.80;;;21.40;86.60;;;;;;5046675;28;20425;-76
2021/06/28 06:08:14;;;;;;;4.43;3.97;;;21.60;86.30;;;;;;5049900;28;20416;-76
2021/06/28 06:10:40;;;;;;;3.87;3.70;;;21.80;85.60;;;;;;5050365;28;20429;-76
2021/06/28 06:13:06;;;;;;;8.20;4.20;;;22.00;85.00;;;;;;5052461;28;20884;-77
2021/06/28 06:15:32;;;;;;;4.47;3.43;;;22.20;84.70;;;;;;5056553;28;20422;-78
2021/06/28 06:17:58;;;;;;;5.03;4.07;;;22.30;83.60;;;;;;5056308;28;20939;-77
2021/06/28 06:20:24;;;;;;;6.60;4.27;;;22.40;82.70;;;;;;5052478;28;20175;-76
2021/06/28 06:22:50;;;;;;;4.90;4.10;;;22.40;82.10;;;;;;5052212;28;20304;-77
2021/06/28 06:25:15;;;;;;;6.07;3.87;;;22.50;81.40;;;;;;5054564;28;20179;-76
2021/06/28 06:27:41;;;;;;;6.50;3.73;;;22.40;80.80;;;;;;5057491;28;20470;-77
2021/06/28 06:30:08;;;;;;;6.57;3.90;;;22.30;81.10;;;;;;5062266;28;20563;-77
2021/06/28 06:32:34;;;;;;;5.10;4.00;;;22.30;81.80;;;;;;5057680;28;20421;-77
2021/06/28 06:35:00;;;;;;;5.20;4.00;;;22.30;82.20;;;;;;5054245;28;20896;-76
2021/06/28 06:37:26;;;;;;;7.00;3.93;;;22.40;82.20;;;;;;5049396;28;20213;-77
2021/06/28 06:39:51;;;;;;;4.30;3.50;;;22.60;81.50;;;;;;5052353;28;20203;-76
2021/06/28 06:42:17;;;;;;;5.60;3.63;;;22.80;80.30;;;;;;5052146;28;20290;-76
2021/06/28 06:44:44;;;;;;;4.87;4.03;;;22.90;79.60;;;;;;5052886;28;20613;-78
2021/06/28 06:47:10;;;;;;;4.90;3.80;;;22.90;79.50;;;;;;5056181;28;20474;-79
2021/06/28 06:49:36;;;;;;;7.80;3.87;;;22.90;79.00;;;;;;5045208;28;20472;-77
2021/06/28 06:52:02;;;;;;;4.97;4.23;;;22.80;79.90;;;;;;5052302;28;20180;-77
2021/06/28 06:54:28;;;;;;;5.20;4.07;;;22.90;80.00;;;;;;5053967;28;20178;-77
2021/06/28 06:56:54;;;;;;;4.60;4.07;;;22.90;80.00;;;;;;5052518;28;20478;-76
2021/06/28 06:59:19;;;;;;;5.37;4.17;;;23.10;79.20;;;;;;5052851;28;20272;-78
2021/06/28 07:01:45;;;;;;;5.63;3.70;;;23.30;78.40;;;;;;5054988;28;20269;-76
2021/06/28 07:04:14;;;;;;;5.80;3.97;;;23.30;78.60;;;;;;5057758;28;20185;-76
2021/06/28 07:06:40;;;;;;;3.90;3.60;;;23.50;77.40;;;;;;5051433;28;20201;-76
2021/06/28 07:09:05;;;;;;;5.23;4.07;;;23.60;76.70;;;;;;5054279;28;20490;-77
2021/06/28 07:11:31;;;;;;;8.00;3.83;;;23.60;77.10;;;;;;5051579;28;20182;-76
2021/06/28 07:13:59;;;;;;;6.30;4.40;;;23.70;77.30;;;;;;5054652;28;20175;-77
2021/06/28 07:16:30;;;;;;;6.07;4.53;;;23.70;76.20;;;;;;5053000;28;20205;-76
2021/06/28 07:19:00;;;;;;;4.10;3.57;;;23.80;76.80;;;;;;5052641;28;20409;-76
2021/06/28 07:21:27;;;;;;;4.93;4.23;;;23.80;75.90;;;;;;5052821;28;20958;-76
2021/06/28 07:23:53;;;;;;;11.40;5.00;;;23.80;75.70;;;;;;5054506;28;20412;-76
2021/06/28 07:26:25;;;;;;;4.77;4.23;;;23.80;76.40;;;;;;5054552;28;20472;-76
2021/06/28 07:28:51;;;;;;;5.90;4.03;;;23.90;75.40;;;;;;5055620;28;20464;-78
2021/06/28 07:31:17;;;;;;;4.87;3.50;;;23.90;75.20;;;;;;5041324;28;20438;-76
2021/06/28 07:33:43;;;;;;;7.30;4.13;;;24.00;74.90;;;;;;5055387;28;20440;-77
2021/06/28 07:36:09;;;;;;;7.47;4.30;;;24.00;74.60;;;;;;5056063;28;20323;-76
2021/06/28 07:38:35;;;;;;;4.70;4.00;;;24.00;73.50;;;;;;5056057;28;20182;-76
2021/06/28 07:41:03;;;;;;;6.17;4.80;;;24.00;73.30;;;;;;5053893;28;20560;-76
2021/06/28 07:43:28;;;;;;;7.80;4.30;;;24.00;72.70;;;;;;5053260;28;20573;-76
2021/06/28 07:45:54;;;;;;;6.10;3.93;;;24.10;72.90;;;;;;5056005;28;20468;-75
2021/06/28 07:48:21;;;;;;;12.47;7.83;;;24.10;71.00;;;;;;5054041;28;20227;-76
2021/06/28 07:50:47;;;;;;;9.73;5.70;;;24.20;71.70;;;;;;5054432;28;20817;-75
2021/06/28 07:53:14;;;;;;;4.80;3.70;;;24.30;71.70;;;;;;5052999;28;20440;-76
2021/06/28 07:55:40;;;;;;;9.97;5.30;;;24.50;70.10;;;;;;5054629;28;20902;-78
2021/06/28 07:58:06;;;;;;;8.43;4.40;;;24.60;70.70;;;;;;5053713;28;20432;-75
2021/06/28 08:00:33;;;;;;;4.80;3.90;;;24.70;69.50;;;;;;5052396;28;20414;-77
2021/06/28 08:02:59;;;;;;;6.10;5.03;;;24.80;68.80;;;;;;5051212;28;20181;-76
2021/06/28 08:05:25;;;;;;;8.40;5.27;;;24.80;68.80;;;;;;5050718;28;20428;-75
2021/06/28 08:07:51;;;;;;;5.90;4.53;;;24.90;69.10;;;;;;5051647;28;21047;-75
2021/06/28 08:10:17;;;;;;;6.10;4.97;;;25.00;67.70;;;;;;5056295;28;20206;-79
2021/06/28 08:12:44;;;;;;;4.33;4.03;;;25.00;66.40;;;;;;5057717;28;20184;-76
2021/06/28 08:15:12;;;;;;;7.00;4.20;;;25.00;64.80;;;;;;5058901;28;20418;-77
2021/06/28 08:17:38;;;;;;;5.57;3.90;;;24.80;66.70;;;;;;5053713;28;20941;-76
2021/06/28 08:20:05;;;;;;;4.23;4.00;;;24.90;65.80;;;;;;5051344;28;20978;-77
2021/06/28 08:22:31;;;;;;;5.40;4.23;;;25.00;66.40;;;;;;5046759;28;20432;-75
2021/06/28 08:24:57;;;;;;;5.07;3.90;;;25.10;65.10;;;;;;5051623;28;20902;-77
2021/06/28 08:27:23;;;;;;;5.93;4.10;;;25.30;65.10;;;;;;5050705;28;20234;-75
2021/06/28 08:29:49;;;;;;;4.10;3.60;;;25.60;64.10;;;;;;5047921;28;20220;-75
2021/06/28 08:32:15;;;;;;;4.53;3.70;;;25.80;64.50;;;;;;5050000;28;20585;-76
2021/06/28 08:34:40;;;;;;;5.03;3.90;;;26.00;62.50;;;;;;5050764;28;20434;-74
2021/06/28 08:37:06;;;;;;;5.90;4.70;;;26.00;60.90;;;;;;5048839;28;20202;-74
2021/06/28 08:39:32;;;;;;;4.67;3.90;;;25.90;60.60;;;;;;5050504;28;20269;-77
2021/06/28 08:41:58;;;;;;;6.30;4.20;;;25.90;59.60;;;;;;5049157;28;20205;-75
2021/06/28 08:44:24;;;;;;;4.90;3.43;;;25.90;60.90;;;;;;5050925;28;20258;-74
2021/06/28 08:46:50;;;;;;;7.60;3.87;;;26.10;60.60;;;;;;5048417;28;20212;-75
2021/06/28 08:49:16;;;;;;;4.43;3.70;;;26.10;59.50;;;;;;5049955;28;20497;-75
2021/06/28 08:51:44;;;;;;;4.50;3.70;;;26.20;59.90;;;;;;5050277;28;20463;-75
2021/06/28 08:54:13;;;;;;;5.23;4.33;;;26.50;60.60;;;;;;5049830;28;20424;-75
2021/06/28 08:56:41;;;;;;;5.67;4.40;;;26.60;59.60;;;;;;5046444;28;20442;-73
2021/06/28 08:59:07;;;;;;;5.83;4.13;;;26.60;59.50;;;;;;5042784;28;20425;-75
2021/06/28 09:01:35;;;;;;;6.83;4.80;;;26.50;59.50;;;;;;5050891;28;20499;-75
2021/06/28 09:04:02;;;;;;;5.87;4.00;;;26.30;59.90;;;;;;5039056;28;20514;-75
2021/06/28 09:06:29;;;;;;;4.60;3.93;;;26.60;60.10;;;;;;5051728;28;20433;-76
2021/06/28 09:09:03;;;;;;;6.20;4.27;;;26.90;60.60;;;;;;5051417;28;20456;-74
2021/06/28 09:11:33;;;;;;;4.50;3.60;;;27.20;59.60;;;;;;5052071;28;20411;-75
2021/06/28 09:14:02;;;;;;;6.83;4.27;;;27.30;58.40;;;;;;5032554;28;20781;-75
2021/06/28 09:16:29;;;;;;;5.77;4.80;;;27.20;58.40;;;;;;5031585;28;20855;-75
2021/06/28 09:19:06;;;;;;;4.97;4.43;;;27.00;58.90;;;;;;5052362;28;20519;-76
2021/06/28 09:21:37;;;;;;;7.13;4.97;;;26.90;59.70;;;;;;5052116;28;20801;-76
2021/06/28 09:24:05;;;;;;;5.23;4.00;;;27.00;60.10;;;;;;5045347;28;20409;-76
2021/06/28 09:26:35;;;;;;;5.60;3.97;;;27.10;58.70;;;;;;5050910;28;20437;-76
2021/06/28 09:29:05;;;;;;;5.40;4.07;;;27.00;57.60;;;;;;5051874;28;20456;-74
2021/06/28 09:31:43;;;;;;;4.40;4.10;;;27.10;57.80;;;;;;5051661;28;20449;-74
2021/06/28 09:34:11;;;;;;;5.20;4.20;;;27.10;57.80;;;;;;5052836;28;20896;-76
2021/06/28 09:36:54;;;;;;;4.73;4.47;;;27.00;58.10;;;;;;5051533;28;20464;-74
2021/06/28 09:39:26;;;;;;;4.87;4.60;;;26.70;58.70;;;;;;5052021;28;20498;-74
2021/06/28 09:41:59;;;;;;;4.43;4.17;;;26.60;59.20;;;;;;5051050;28;20457;-75
2021/06/28 09:44:28;;;;;;;5.50;3.93;;;26.50;58.80;;;;;;5054027;28;20486;-75
2021/06/28 09:47:15;;;;;;;5.70;3.70;;;26.60;58.70;;;;;;5053458;28;20494;-75
2021/06/28 09:50:00;;;;;;;4.97;4.20;;;26.80;58.00;;;;;;5039157;28;20467;-75
2021/06/28 09:52:32;;;;;;;4.80;3.87;;;26.90;57.40;;;;;;5055187;28;20433;-75
2021/06/28 09:55:24;;;;;;;3.93;3.77;;;27.10;55.40;;;;;;5051182;28;20666;-75
2021/06/28 09:58:06;;;;;;;4.80;3.67;;;27.10;54.90;;;;;;5055514;28;20441;-73
2021/06/28 10:00:34;;;;;;;10.03;4.07;;;27.20;57.00;;;;;;5059997;28;20432;-74
2021/06/28 10:02:59;;;;;;;5.73;4.43;;;27.00;56.50;;;;;;5064061;28;20426;-76
2021/06/28 10:05:54;;;;;;;6.20;4.43;;;27.00;56.50;;;;;;5064748;28;20751;-75
2021/06/28 10:08:20;;;;;;;5.33;4.13;;;27.20;56.20;;;;;;5050496;28;20514;-75
2021/06/28 10:10:46;;;;;;;5.80;4.87;;;27.40;55.30;;;;;;5053590;28;20413;-76
2021/06/28 10:13:12;;;;;;;4.77;3.97;;;27.50;55.30;;;;;;5055215;28;20186;-75
2021/06/28 10:15:41;;;;;;;7.83;4.47;;;27.40;54.40;;;;;;5054896;28;20188;-75
2021/06/28 10:18:10;;;;;;;7.00;4.67;;;27.20;54.80;;;;;;5055202;28;20251;-76
2021/06/28 10:20:40;;;;;;;5.20;3.40;;;27.50;54.90;;;;;;5054925;28;20410;-74
2021/06/28 10:23:07;;;;;;;4.00;3.80;;;28.10;53.40;;;;;;5055454;28;20421;-76
2021/06/28 10:25:34;;;;;;;7.17;4.57;;;28.40;52.60;;;;;;5055038;28;20847;-75
2021/06/28 10:28:00;;;;;;;6.93;4.70;;;28.60;52.10;;;;;;5054471;28;20713;-75
2021/06/28 10:30:27;;;;;;;4.47;4.10;;;29.00;51.40;;;;;;5055146;28;21051;-75
2021/06/28 10:33:09;;;;;;;4.30;4.00;;;28.90;50.10;;;;;;5055092;28;20411;-76
2021/06/28 10:35:38;;;;;;;5.60;4.10;;;28.90;51.00;;;;;;5054652;28;20398;-75
2021/06/28 10:38:08;;;;;;;4.30;3.47;;;29.50;49.10;;;;;;5054387;28;20446;-76
2021/06/28 10:40:48;;;;;;;5.40;4.53;;;29.80;49.30;;;;;;5053195;28;20446;-75
2021/06/28 10:43:24;;;;;;;5.47;4.20;;;29.90;47.00;;;;;;5054734;28;20494;-75
2021/06/28 10:45:50;;;;;;;5.30;3.87;;;29.80;47.70;;;;;;5056313;28;20514;-74
2021/06/28 10:48:19;;;;;;;5.67;3.80;;;30.00;46.60;;;;;;5054476;28;20419;-75
2021/06/28 10:51:00;;;;;;;4.57;3.93;;;29.40;48.10;;;;;;5054781;28;20180;-75
2021/06/28 10:53:32;;;;;;;4.00;3.80;;;29.40;48.10;;;;;;5065758;28;20823;-75
2021/06/28 10:56:25;;;;;;;5.33;4.00;;;30.00;47.80;;;;;;5070060;28;20787;-76
2021/06/28 10:59:04;;;;;;;6.50;3.93;;;30.00;47.70;;;;;;5054548;28;20435;-75
2021/06/28 11:01:33;;;;;;;4.00;3.80;;;30.00;47.80;;;;;;5054066;28;20419;-75
2021/06/28 11:04:05;;;;;;;4.93;4.60;;;30.20;47.50;;;;;;5053369;28;20505;-77
2021/06/28 11:06:31;;;;;;;5.53;4.87;;;30.00;46.70;;;;;;5054176;28;20576;-75
2021/06/28 11:09:00;;;;;;;5.30;4.10;;;29.70;48.10;;;;;;5054817;28;20506;-76
2021/06/28 11:12:02;;;;;;;4.83;4.20;;;30.00;48.20;;;;;;5056085;28;20415;-74
2021/06/28 11:14:36;;;;;;;5.80;5.10;;;29.70;48.50;;;;;;5032636;28;20499;-74
2021/06/28 11:17:07;;;;;;;4.60;4.27;;;29.70;49.30;;;;;;5046225;28;20800;-75
2021/06/28 11:19:46;;;;;;;5.27;4.30;;;30.00;48.60;;;;;;5052156;28;20410;-77
2021/06/28 11:22:32;;;;;;;7.97;4.40;;;30.40;48.50;;;;;;5053625;28;20439;-75
2021/06/28 11:25:03;;;;;;;5.37;4.47;;;30.50;47.80;;;;;;5054044;28;20522;-75
2021/06/28 11:27:28;;;;;;;5.03;4.77;;;30.00;48.90;;;;;;5053749;28;20434;-75
2021/06/28 11:29:55;;;;;;;5.80;5.00;;;29.70;49.40;;;;;;5051947;28;20467;-76
2021/06/28 11:32:21;;;;;;;11.37;4.60;;;29.40;50.20;;;;;;5047063;28;20185;-75
2021/06/28 11:34:47;;;;;;;5.53;4.37;;;29.40;50.50;;;;;;5046560;28;20475;-74
2021/06/28 11:37:13;;;;;;;8.53;4.80;;;29.70;50.10;;;;;;5054906;28;20441;-77
2021/06/28 11:39:56;;;;;;;5.87;4.53;;;29.60;50.70;;;;;;5054405;28;20294;-77
2021/06/28 11:42:37;;;;;;;4.83;4.33;;;30.20;49.40;;;;;;5052530;28;20181;-76
2021/06/28 11:45:11;;;;;;;4.90;4.60;;;30.30;48.50;;;;;;5052830;28;20554;-77
2021/06/28 11:47:49;;;;;;;5.03;4.20;;;30.40;49.30;;;;;;5049603;28;20446;-77
2021/06/28 11:50:23;;;;;;;7.20;4.67;;;31.10;48.10;;;;;;5051916;28;20469;-75
2021/06/28 11:53:00;;;;;;;4.77;4.33;;;31.30;46.20;;;;;;5045892;28;20557;-77
2021/06/28 11:55:30;;;;;;;5.97;4.47;;;31.10;47.90;;;;;;5048260;28;20432;-77
2021/06/28 11:57:57;;;;;;;6.10;4.57;;;31.10;47.40;;;;;;5051984;28;20427;-77
2021/06/28 12:00:23;;;;;;;5.47;5.10;;;30.80;48.10;;;;;;5052968;28;20490;-75
2021/06/28 12:03:09;;;;;;;5.50;4.27;;;30.80;48.30;;;;;;5051391;28;20427;-76
2021/06/28 12:05:35;;;;;;;4.43;4.13;;;30.80;48.50;;;;;;5041208;28;20757;-77
2021/06/28 12:08:01;;;;;;;4.70;4.43;;;30.10;49.90;;;;;;5050739;28;20952;-77
2021/06/28 12:10:27;;;;;;;6.00;4.60;;;29.70;50.70;;;;;;5047814;28;20649;-76
2021/06/28 12:12:56;;;;;;;6.37;5.17;;;29.40;51.60;;;;;;5049087;28;20544;-77
2021/06/28 12:15:29;;;;;;;5.47;5.10;;;29.50;51.60;;;;;;5045526;28;20419;-75
2021/06/28 12:17:56;;;;;;;4.97;4.63;;;30.10;50.70;;;;;;5051091;28;21833;-76
2021/06/28 12:20:22;;;;;;;4.83;4.60;;;30.30;49.30;;;;;;5050506;28;20435;-76
2021/06/28 12:22:51;;;;;;;6.03;3.70;;;30.80;48.90;;;;;;5051266;28;20507;-76
2021/06/28 12:25:19;;;;;;;4.90;4.50;;;31.30;47.80;;;;;;5052402;28;20446;-78
2021/06/28 12:27:49;;;;;;;7.43;4.87;;;31.10;48.20;;;;;;5050978;28;20446;-76
2021/06/28 12:30:20;;;;;;;5.70;4.67;;;30.70;48.90;;;;;;5052647;28;20934;-77
2021/06/28 12:32:50;;;;;;;5.17;4.40;;;30.40;49.80;;;;;;5046905;28;20417;-75
2021/06/28 12:35:23;;;;;;;5.40;4.70;;;30.70;49.40;;;;;;5049366;28;20434;-76
2021/06/28 12:37:56;;;;;;;4.67;4.37;;;30.90;48.90;;;;;;5049726;28;20849;-76
2021/06/28 12:40:28;;;;;;;4.87;4.40;;;31.10;48.50;;;;;;5050736;28;20522;-75
2021/06/28 12:42:57;;;;;;;5.53;4.33;;;30.90;49.10;;;;;;5050173;28;20466;-76
2021/06/28 12:45:34;;;;;;;5.40;5.10;;;30.60;49.40;;;;;;5051129;28;20420;-75
2021/06/28 12:48:03;;;;;;;6.73;5.50;;;30.90;49.30;;;;;;5049645;28;20491;-74
2021/06/28 12:50:32;;;;;;;6.53;4.90;;;31.20;49.10;;;;;;5047414;28;20547;-76